Time,TemperatureF,DewpointF,PressureIn,WindDirection,WindDirectionDegrees,WindSpeedMPH,WindSpeedGustMPH,Humidity,HourlyPrecipIn,Conditions,Clouds,dailyrainin,SoftwareType,DateUTC
2013-01-23 00:00:00,48.0,34.3,30.18,North,-999,0.0,0.0,59,0.00,,,-99.99,WeatherLink 5.7,2013-01-23 05:00:00,
2013-01-23 00:15:00,47.9,35.1,30.18,North,-999,0.0,0.0,61,0.00,,,-99.99,WeatherLink 5.7,2013-01-23 05:15:00,
2013-01-23 00:30:00,47.8,34.6,30.17,North,-999,0.0,0.0,60,0.00,,,-99.99,WeatherLink 5.7,2013-01-23 05:30:00,
2013-01-23 00:45:00,47.7,35.3,30.18,North,-999,0.0,0.0,62,0.00,,,-99.99,WeatherLink 5.7,2013-01-23 05:45:00,
2013-01-23 01:00:00,47.7,35.3,30.18,North,-999,0.0,0.0,62,0.00,,,-99.99,WeatherLink 5.7,2013-01-23 06:00:00,
2013-01-23 01:15:00,47.7,35.7,30.18,North,-999,0.0,0.0,63,0.00,,,-99.99,WeatherLink 5.7,2013-01-23 06:15:00,
2013-01-23 01:30:00,47.6,36.4,30.18,North,-999,0.0,0.0,65,0.00,,,-99.99,WeatherLink 5.7,2013-01-23 06:30:00,
2013-01-23 01:45:00,47.4,36.2,30.18,North,-999,0.0,0.0,65,0.00,,,-99.99,WeatherLink 5.7,2013-01-23 06:45:00,
2013-01-23 02:00:00,47.2,36.0,30.18,North,-999,0.0,0.0,65,0.00,,,-99.99,WeatherLink 5.7,2013-01-23 07:00:00,
2013-01-23 02:15:00,46.8,36.0,30.18,North,-999,0.0,0.0,66,0.00,,,-99.99,WeatherLink 5.7,2013-01-23 07:15:00,
2013-01-23 02:30:00,46.4,36.0,30.18,North,-999,0.0,0.0,67,0.00,,,-99.99,WeatherLink 5.7,2013-01-23 07:30:00,
2013-01-23 02:45:00,46.1,35.7,30.18,North,-999,0.0,0.0,67,0.00,,,-99.99,WeatherLink 5.7,2013-01-23 07:45:00,
2013-01-23 03:00:00,45.6,35.6,30.19,North,-999,0.0,0.0,68,0.00,,,-99.99,WeatherLink 5.7,2013-01-23 08:00:00,
2013-01-23 03:15:00,45.3,35.4,30.19,North,-999,0.0,0.0,68,0.00,,,-99.99,WeatherLink 5.7,2013-01-23 08:15:00,
2013-01-23 03:30:00,45.0,35.1,30.19,North,-999,0.0,0.0,68,0.00,,,-99.99,WeatherLink 5.7,2013-01-23 08:30:00,
2013-01-23 03:45:00,44.5,34.6,30.19,North,-999,0.0,0.0,68,0.00,,,-99.99,WeatherLink 5.7,2013-01-23 08:45:00,
2013-01-23 04:00:00,44.2,34.3,30.19,North,-999,0.0,0.0,68,0.00,,,-99.99,WeatherLink 5.7,2013-01-23 09:00:00,
2013-01-23 04:15:00,44.4,34.5,30.19,North,-999,0.0,0.0,68,0.00,,,-99.99,WeatherLink 5.7,2013-01-23 09:15:00,
2013-01-23 04:30:00,44.9,34.6,30.19,North,0,0.0,2.0,67,0.00,,,-99.99,WeatherLink 5.7,2013-01-23 09:30:00,
2013-01-23 04:45:00,45.7,34.2,30.19,North,0,0.0,4.0,64,0.00,,,-99.99,WeatherLink 5.7,2013-01-23 09:45:00,
2013-01-23 05:00:00,46.6,34.3,30.19,North,0,0.0,4.0,62,0.00,,,-99.99,WeatherLink 5.7,2013-01-23 10:00:00,
2013-01-23 05:15:00,47.1,34.3,30.19,North,-999,0.0,0.0,61,0.00,,,-99.99,WeatherLink 5.7,2013-01-23 10:15:00,
2013-01-23 05:30:00,47.2,34.0,30.20,North,0,0.0,6.0,60,0.00,,,-99.99,WeatherLink 5.7,2013-01-23 10:30:00,
2013-01-23 05:45:00,47.1,33.5,30.20,North,0,0.0,4.0,59,0.00,,,-99.99,WeatherLink 5.7,2013-01-23 10:45:00,
2013-01-23 06:00:00,47.0,33.0,30.21,North,0,0.0,4.0,58,0.00,,,-99.99,WeatherLink 5.7,2013-01-23 11:00:00,
2013-01-23 06:15:00,46.8,32.8,30.22,North,0,0.0,2.0,58,0.00,,,-99.99,WeatherLink 5.7,2013-01-23 11:15:00,
2013-01-23 06:30:00,46.5,32.5,30.22,North,0,0.0,2.0,58,0.00,,,-99.99,WeatherLink 5.7,2013-01-23 11:30:00,
2013-01-23 06:45:00,46.1,32.1,30.23,North,-999,0.0,0.0,58,0.00,,,-99.99,WeatherLink 5.7,2013-01-23 11:45:00,
2013-01-23 07:00:00,45.8,31.9,30.24,North,-999,0.0,0.0,58,0.00,,,-99.99,WeatherLink 5.7,2013-01-23 12:00:00,
2013-01-23 07:15:00,45.3,31.8,30.24,North,-999,0.0,0.0,59,0.00,,,-99.99,WeatherLink 5.7,2013-01-23 12:15:00,
2013-01-23 07:30:00,44.6,31.1,30.24,North,-999,0.0,0.0,59,0.00,,,-99.99,WeatherLink 5.7,2013-01-23 12:30:00,
2013-01-23 07:45:00,44.0,31.0,30.25,North,-999,0.0,0.0,60,0.00,,,-99.99,WeatherLink 5.7,2013-01-23 12:45:00,
2013-01-23 08:00:00,43.5,30.9,30.25,North,-999,0.0,0.0,61,0.00,,,-99.99,WeatherLink 5.7,2013-01-23 13:00:00,
2013-01-23 08:15:00,44.0,31.4,30.25,North,-999,0.0,0.0,61,0.00,,,-99.99,WeatherLink 5.7,2013-01-23 13:15:00,
2013-01-23 08:30:00,45.1,31.6,30.25,North,-999,0.0,0.0,59,0.00,,,-99.99,WeatherLink 5.7,2013-01-23 13:30:00,
2013-01-23 08:45:00,46.9,32.4,30.25,North,-999,0.0,0.0,57,0.00,,,-99.99,WeatherLink 5.7,2013-01-23 13:45:00,
2013-01-23 09:00:00,48.9,33.9,30.25,North,0,0.0,2.0,56,0.00,,,-99.99,WeatherLink 5.7,2013-01-23 14:00:00,
2013-01-23 09:15:00,50.9,33.9,30.25,North,-999,0.0,0.0,52,0.00,,,-99.99,WeatherLink 5.7,2013-01-23 14:15:00,
2013-01-23 09:30:00,53.3,34.6,30.26,North,0,0.0,5.0,49,0.00,,,-99.99,WeatherLink 5.7,2013-01-23 14:30:00,
2013-01-23 09:45:00,55.4,35.5,30.27,North,0,0.0,3.0,47,0.00,,,-99.99,WeatherLink 5.7,2013-01-23 14:45:00,
2013-01-23 10:00:00,56.7,36.1,30.27,North,0,0.0,1.0,46,0.00,,,-99.99,WeatherLink 5.7,2013-01-23 15:00:00,
2013-01-23 10:15:00,57.7,35.9,30.27,North,-999,0.0,0.0,44,0.00,,,-99.99,WeatherLink 5.7,2013-01-23 15:15:00,
2013-01-23 10:30:00,58.7,35.7,30.27,North,0,0.0,6.0,42,0.00,,,-99.99,WeatherLink 5.7,2013-01-23 15:30:00,
2013-01-23 10:45:00,59.7,35.3,30.27,North,0,0.0,1.0,40,0.00,,,-99.99,WeatherLink 5.7,2013-01-23 15:45:00,
2013-01-23 11:00:00,60.6,34.8,30.26,North,0,1.0,9.0,38,0.00,,,-99.99,WeatherLink 5.7,2013-01-23 16:00:00,
2013-01-23 11:15:00,61.4,34.9,30.25,North,0,0.0,3.0,37,0.00,,,-99.99,WeatherLink 5.7,2013-01-23 16:15:00,
2013-01-23 11:30:00,62.1,35.5,30.25,North,0,1.0,7.0,37,0.00,,,-99.99,WeatherLink 5.7,2013-01-23 16:30:00,
2013-01-23 11:45:00,62.8,35.4,30.25,North,0,2.0,12.0,36,0.00,,,-99.99,WeatherLink 5.7,2013-01-23 16:45:00,
2013-01-23 12:00:00,63.2,36.5,30.24,North,0,1.0,9.0,37,0.00,,,-99.99,WeatherLink 5.7,2013-01-23 17:00:00,
2013-01-23 12:15:00,63.2,35.8,30.23,North,0,2.0,13.0,36,0.00,,,-99.99,WeatherLink 5.7,2013-01-23 17:15:00,
2013-01-23 12:30:00,63.3,34.4,30.22,North,0,4.0,14.0,34,0.00,,,-99.99,WeatherLink 5.7,2013-01-23 17:30:00,
2013-01-23 12:45:00,63.7,34.8,30.22,North,0,4.0,11.0,34,0.00,,,-99.99,WeatherLink 5.7,2013-01-23 17:45:00,
2013-01-23 13:00:00,63.7,34.8,30.21,North,0,3.0,13.0,34,0.00,,,-99.99,WeatherLink 5.7,2013-01-23 18:00:00,
2013-01-23 13:15:00,63.6,34.7,30.20,North,0,4.0,14.0,34,0.00,,,-99.99,WeatherLink 5.7,2013-01-23 18:15:00,
2013-01-23 13:30:00,63.7,34.8,30.19,North,0,3.0,13.0,34,0.00,,,-99.99,WeatherLink 5.7,2013-01-23 18:30:00,
2013-01-23 13:45:00,63.8,34.9,30.19,North,0,2.0,13.0,34,0.00,,,-99.99,WeatherLink 5.7,2013-01-23 18:45:00,
2013-01-23 14:00:00,63.9,35.0,30.19,North,0,2.0,12.0,34,0.00,,,-99.99,WeatherLink 5.7,2013-01-23 19:00:00,
2013-01-23 14:15:00,63.9,36.4,30.19,North,0,3.0,11.0,36,0.00,,,-99.99,WeatherLink 5.7,2013-01-23 19:15:00,
2013-01-23 14:30:00,64.0,37.2,30.19,North,0,1.0,7.0,37,0.00,,,-99.99,WeatherLink 5.7,2013-01-23 19:30:00,
2013-01-23 14:45:00,63.9,37.8,30.19,North,0,1.0,9.0,38,0.00,,,-99.99,WeatherLink 5.7,2013-01-23 19:45:00,
2013-01-23 15:00:00,63.6,37.5,30.18,North,0,2.0,11.0,38,0.00,,,-99.99,WeatherLink 5.7,2013-01-23 20:00:00,
2013-01-23 15:15:00,63.3,37.9,30.18,North,0,2.0,11.0,39,0.00,,,-99.99,WeatherLink 5.7,2013-01-23 20:15:00,
2013-01-23 15:30:00,63.0,38.9,30.18,North,0,1.0,10.0,41,0.00,,,-99.99,WeatherLink 5.7,2013-01-23 20:30:00,
2013-01-23 15:45:00,62.7,39.9,30.18,North,0,1.0,10.0,43,0.00,,,-99.99,WeatherLink 5.7,2013-01-23 20:45:00,
2013-01-23 16:00:00,62.4,40.2,30.19,North,0,2.0,11.0,44,0.00,,,-99.99,WeatherLink 5.7,2013-01-23 21:00:00,
2013-01-23 16:15:00,62.2,40.6,30.19,North,0,1.0,10.0,45,0.00,,,-99.99,WeatherLink 5.7,2013-01-23 21:15:00,
2013-01-23 16:30:00,62.0,41.0,30.18,North,0,1.0,9.0,46,0.00,,,-99.99,WeatherLink 5.7,2013-01-23 21:30:00,
2013-01-23 16:45:00,61.7,41.3,30.19,North,0,1.0,7.0,47,0.00,,,-99.99,WeatherLink 5.7,2013-01-23 21:45:00,
2013-01-23 17:00:00,61.3,41.4,30.19,North,0,0.0,7.0,48,0.00,,,-99.99,WeatherLink 5.7,2013-01-23 22:00:00,
2013-01-23 17:15:00,60.7,40.3,30.20,North,0,0.0,6.0,47,0.00,,,-99.99,WeatherLink 5.7,2013-01-23 22:15:00,
2013-01-23 17:30:00,60.1,40.3,30.19,North,-999,0.0,0.0,48,0.00,,,-99.99,WeatherLink 5.7,2013-01-23 22:30:00,
2013-01-23 17:45:00,59.4,40.2,30.20,North,-999,0.0,0.0,49,0.00,,,-99.99,WeatherLink 5.7,2013-01-23 22:45:00,
2013-01-23 18:00:00,58.6,40.0,30.20,North,-999,0.0,0.0,50,0.00,,,-99.99,WeatherLink 5.7,2013-01-23 23:00:00,
2013-01-23 18:15:00,57.8,40.8,30.20,North,-999,0.0,0.0,53,0.00,,,-99.99,WeatherLink 5.7,2013-01-23 23:15:00,
2013-01-23 18:30:00,57.0,40.5,30.21,North,-999,0.0,0.0,54,0.00,,,-99.99,WeatherLink 5.7,2013-01-23 23:30:00,
2013-01-23 18:45:00,56.5,40.5,30.21,North,-999,0.0,0.0,55,0.00,,,-99.99,WeatherLink 5.7,2013-01-23 23:45:00,
2013-01-23 19:00:00,55.8,39.9,30.21,North,-999,0.0,0.0,55,0.00,,,-99.99,WeatherLink 5.7,2013-01-24 00:00:00,
2013-01-23 19:15:00,54.9,39.5,30.21,North,-999,0.0,0.0,56,0.00,,,-99.99,WeatherLink 5.7,2013-01-24 00:15:00,
2013-01-23 19:30:00,54.1,39.6,30.21,North,-999,0.0,0.0,58,0.00,,,-99.99,WeatherLink 5.7,2013-01-24 00:30:00,
2013-01-23 19:45:00,53.5,39.9,30.21,North,-999,0.0,0.0,60,0.00,,,-99.99,WeatherLink 5.7,2013-01-24 00:45:00,
2013-01-23 20:00:00,53.0,39.5,30.22,North,-999,0.0,0.0,60,0.00,,,-99.99,WeatherLink 5.7,2013-01-24 01:00:00,
2013-01-23 20:15:00,52.4,38.9,30.22,North,-999,0.0,0.0,60,0.00,,,-99.99,WeatherLink 5.7,2013-01-24 01:15:00,
2013-01-23 20:30:00,51.5,39.3,30.22,North,-999,0.0,0.0,63,0.00,,,-99.99,WeatherLink 5.7,2013-01-24 01:30:00,
2013-01-23 20:45:00,50.8,38.2,30.21,North,-999,0.0,0.0,62,0.00,,,-99.99,WeatherLink 5.7,2013-01-24 01:45:00,
2013-01-23 21:00:00,50.1,38.4,30.21,North,-999,0.0,0.0,64,0.00,,,-99.99,WeatherLink 5.7,2013-01-24 02:00:00,
2013-01-23 21:15:00,49.4,38.1,30.21,North,-999,0.0,0.0,65,0.00,,,-99.99,WeatherLink 5.7,2013-01-24 02:15:00,
2013-01-23 21:30:00,48.8,37.9,30.21,North,-999,0.0,0.0,66,0.00,,,-99.99,WeatherLink 5.7,2013-01-24 02:30:00,
2013-01-23 21:45:00,48.3,38.2,30.21,North,-999,0.0,0.0,68,0.00,,,-99.99,WeatherLink 5.7,2013-01-24 02:45:00,
2013-01-23 22:00:00,47.9,37.8,30.21,North,-999,0.0,0.0,68,0.00,,,-99.99,WeatherLink 5.7,2013-01-24 03:00:00,
2013-01-23 22:15:00,47.5,37.5,30.21,North,-999,0.0,0.0,68,0.00,,,-99.99,WeatherLink 5.7,2013-01-24 03:15:00,
2013-01-23 22:30:00,47.0,37.4,30.21,North,-999,0.0,0.0,69,0.00,,,-99.99,WeatherLink 5.7,2013-01-24 03:30:00,
2013-01-23 22:45:00,46.7,37.1,30.21,North,-999,0.0,0.0,69,0.00,,,-99.99,WeatherLink 5.7,2013-01-24 03:45:00,
2013-01-23 23:00:00,46.2,37.3,30.21,North,-999,0.0,0.0,71,0.00,,,-99.99,WeatherLink 5.7,2013-01-24 04:00:00,
2013-01-23 23:15:00,46.0,37.1,30.21,North,-999,0.0,0.0,71,0.00,,,-99.99,WeatherLink 5.7,2013-01-24 04:15:00,
2013-01-23 23:30:00,45.7,37.5,30.21,North,-999,0.0,0.0,73,0.00,,,-99.99,WeatherLink 5.7,2013-01-24 04:30:00,
2013-01-23 23:45:00,45.7,37.2,30.20,North,-999,0.0,0.0,72,0.00,,,-99.99,WeatherLink 5.7,2013-01-24 04:45:00,